Terminal Aerodrome Forecast
Issued by NWS Sterling, VA

Current Version | Previous Version | Text Only | Print | Product List | Glossary Off
Versions: 1 2 3 4 5 6 7 8 9 10 11 12 13 14 15 16 17 18 19 20 21 22 23 24 25 26 27 28

000
FTUS41 KLWX 041356 AAA
TAFDCA
TAF AMD
KDCA 041356Z 0414/0512 02006KT P6SM -SHRA OVC010
     FM041600 01005KT P6SM -SHRA VCTS OVC025CB
     FM042200 05005KT P6SM BKN050=

USA.gov is the U.S. government's official web portal to all federal, state and local government web resources and services.